Time;durP1;ratioP1;P1;durP2;ratioP2;P2;SDS_P1;SDS_P2;PMS_P1;PMS_P2;Temp;Humidity;BMP_temperature;BMP_pressure;BME280_temperature;BME280_humidity;BME280_pressure;Samples;Min_cycle;Max_cycle;Signal;HPM_P1;HPM_P2
2022/11/09 00:00:35;;;;;;;2.67;2.40;;;12.30;99.90;12.30;100153.00;;;;4896305;28;101796;-65
2022/11/09 00:03:01;;;;;;;3.80;2.30;;;12.20;99.90;12.20;100161.00;;;;4898911;28;88929;-64
2022/11/09 00:05:26;;;;;;;2.57;1.90;;;12.30;99.90;12.20;100160.00;;;;4898316;28;109678;-64
2022/11/09 00:07:52;;;;;;;3.37;2.10;;;12.20;99.90;12.20;100166.00;;;;4896037;28;109128;-65
2022/11/09 00:10:18;;;;;;;1.57;1.47;;;12.20;99.90;12.20;100158.00;;;;4897882;28;117022;-65
2022/11/09 00:12:43;;;;;;;4.37;2.23;;;12.20;99.90;12.10;100156.00;;;;4898098;28;118357;-64
2022/11/09 00:15:10;;;;;;;2.30;1.67;;;12.20;99.90;12.10;100158.00;;;;4900126;28;108900;-64
2022/11/09 00:17:36;;;;;;;3.83;2.10;;;12.20;99.90;12.10;100168.00;;;;4901188;28;88446;-64
2022/11/09 00:20:01;;;;;;;1.80;1.60;;;12.10;99.90;12.10;100170.00;;;;4896589;28;117203;-64
2022/11/09 00:22:27;;;;;;;4.07;2.60;;;12.10;99.90;12.10;100161.00;;;;4895291;28;92860;-64
2022/11/09 00:24:53;;;;;;;4.20;2.60;;;12.10;99.90;12.00;100164.00;;;;4902948;28;109585;-64
2022/11/09 00:27:18;;;;;;;9.07;2.23;;;12.10;99.90;12.00;100170.00;;;;4896534;28;108574;-64
2022/11/09 00:29:44;;;;;;;3.20;2.40;;;12.00;99.90;11.90;100167.00;;;;4904503;28;117029;-63
2022/11/09 00:32:09;;;;;;;5.00;2.97;;;12.00;99.90;11.90;100168.00;;;;4898575;28;116901;-63
2022/11/09 00:34:35;;;;;;;4.97;2.07;;;12.00;99.90;11.90;100178.00;;;;4902989;28;109775;-64
2022/11/09 00:37:01;;;;;;;2.90;2.13;;;11.90;99.90;11.80;100162.00;;;;4898251;28;108559;-64
2022/11/09 00:39:26;;;;;;;4.50;2.03;;;11.90;99.90;11.80;100155.00;;;;4902302;28;87936;-64
2022/11/09 00:41:52;;;;;;;4.70;2.83;;;11.80;99.90;11.80;100162.00;;;;4898802;28;117822;-63
2022/11/09 00:44:18;;;;;;;3.83;2.70;;;11.80;99.90;11.70;100156.00;;;;4903438;28;87070;-63
2022/11/09 00:46:43;;;;;;;4.40;2.63;;;11.70;99.90;11.70;100163.00;;;;4899431;28;109268;-63
2022/11/09 00:49:09;;;;;;;4.37;3.17;;;11.70;99.90;11.60;100149.00;;;;4899358;28;117248;-64
2022/11/09 00:51:35;;;;;;;5.07;2.90;;;11.70;99.90;11.60;100158.00;;;;4898395;28;116594;-65
2022/11/09 00:54:00;;;;;;;4.90;3.20;;;11.60;99.90;11.60;100163.00;;;;4900094;28;109808;-64
2022/11/09 00:56:26;;;;;;;6.03;3.50;;;11.60;99.90;11.50;100164.00;;;;4901176;28;88005;-63
2022/11/09 00:58:57;;;;;;;3.87;2.60;;;11.60;99.90;11.50;100168.00;;;;4899426;28;117191;-63
2022/11/09 01:01:23;;;;;;;4.57;2.20;;;11.60;99.90;11.50;100173.00;;;;4896045;28;87657;-64
2022/11/09 01:03:48;;;;;;;5.13;2.67;;;11.60;99.90;11.50;100161.00;;;;4902166;28;87725;-64
2022/11/09 01:06:21;;;;;;;5.40;3.27;;;11.60;99.90;11.50;100157.00;;;;4899216;28;108422;-64
2022/11/09 01:08:48;;;;;;;3.83;3.33;;;11.50;99.90;11.50;100163.00;;;;4900405;28;87452;-65
2022/11/09 01:11:15;;;;;;;2.43;2.23;;;11.50;99.90;11.50;100159.00;;;;4899918;28;87844;-64
2022/11/09 01:13:40;;;;;;;3.63;3.20;;;11.50;99.90;11.50;100158.00;;;;4896731;28;88049;-64
2022/11/09 01:16:10;;;;;;;5.87;3.60;;;11.50;99.90;11.50;100161.00;;;;4895724;28;89203;-64
2022/11/09 01:18:37;;;;;;;3.40;2.90;;;11.50;99.90;11.50;100155.00;;;;4896904;28;88819;-64
2022/11/09 01:21:05;;;;;;;5.53;3.70;;;11.50;99.90;11.50;100167.00;;;;4895251;28;88625;-63
2022/11/09 01:23:31;;;;;;;4.60;3.03;;;11.50;99.90;11.40;100161.00;;;;4897540;28;101786;-63
2022/11/09 01:25:59;;;;;;;4.33;3.00;;;11.40;99.90;11.40;100165.00;;;;4896044;28;87792;-63
2022/11/09 01:28:25;;;;;;;5.70;3.80;;;11.40;99.90;11.40;100163.00;;;;4897621;28;106509;-65
2022/11/09 01:30:51;;;;;;;5.17;3.87;;;11.50;99.90;11.40;100162.00;;;;4894679;28;98355;-64
2022/11/09 01:33:17;;;;;;;4.37;2.97;;;11.50;99.90;11.40;100158.00;;;;4895046;28;89267;-64
2022/11/09 01:35:43;;;;;;;5.10;4.53;;;11.50;99.90;11.50;100156.00;;;;4899184;28;108801;-64
2022/11/09 01:38:09;;;;;;;5.37;3.60;;;11.50;99.90;11.50;100154.00;;;;4902712;28;117722;-65
2022/11/09 01:40:37;;;;;;;7.83;2.93;;;11.50;99.90;11.50;100157.00;;;;4900424;28;88881;-64
2022/11/09 01:43:14;;;;;;;6.67;4.03;;;11.50;99.90;11.40;100154.00;;;;4898951;28;88015;-65
2022/11/09 01:45:42;;;;;;;3.10;2.80;;;11.50;99.90;11.50;100150.00;;;;4899078;28;95067;-65
2022/11/09 01:48:44;;;;;;;3.37;3.07;;;11.50;99.90;11.40;100153.00;;;;4897837;28;108223;-64
2022/11/09 01:51:24;;;;;;;6.73;3.83;;;11.50;99.90;11.40;100143.00;;;;4894587;28;89376;-63
2022/11/09 01:53:55;;;;;;;6.70;3.37;;;11.40;99.90;11.40;100152.00;;;;4895404;28;101402;-64
2022/11/09 01:56:21;;;;;;;5.33;3.00;;;11.40;99.90;11.40;100146.00;;;;4899342;28;101744;-64
2022/11/09 01:59:13;;;;;;;3.97;2.90;;;11.40;99.90;11.30;100152.00;;;;4894843;28;87382;-64
2022/11/09 02:01:40;;;;;;;3.13;2.83;;;11.40;99.90;11.30;100147.00;;;;4901293;28;110431;-63
2022/11/09 02:04:21;;;;;;;6.30;3.60;;;11.40;99.90;11.30;100142.00;;;;4903474;28;87857;-64
2022/11/09 02:06:49;;;;;;;5.90;4.30;;;11.40;99.90;11.30;100149.00;;;;4900321;28;88956;-64
2022/11/09 02:09:26;;;;;;;4.20;3.60;;;11.40;99.90;11.30;100148.00;;;;4899265;28;89265;-64
2022/11/09 02:11:52;;;;;;;5.03;3.53;;;11.30;99.90;11.30;100141.00;;;;4914807;28;109688;-62
2022/11/09 02:14:21;;;;;;;4.27;3.53;;;11.30;99.90;11.20;100147.00;;;;4892503;28;110189;-62
2022/11/09 02:16:47;;;;;;;4.60;3.13;;;11.30;99.90;11.20;100146.00;;;;4919289;28;87999;-64
2022/11/09 02:19:13;;;;;;;7.57;4.40;;;11.20;99.90;11.20;100141.00;;;;4901473;28;115953;-63
2022/11/09 02:21:39;;;;;;;4.37;3.10;;;11.20;99.90;11.20;100138.00;;;;4898914;28;88942;-64
2022/11/09 02:24:05;;;;;;;6.90;3.93;;;11.20;99.90;11.10;100141.00;;;;4895226;28;109152;-63
2022/11/09 02:26:47;;;;;;;2.70;2.50;;;11.20;99.90;11.10;100142.00;;;;4898249;28;100911;-63
2022/11/09 02:29:18;;;;;;;4.77;2.93;;;11.20;99.90;11.10;100138.00;;;;4897457;28;88052;-64
2022/11/09 02:31:51;;;;;;;6.63;3.97;;;11.10;99.90;11.00;100133.00;;;;4893946;28;88888;-64
2022/11/09 02:34:19;;;;;;;3.37;2.93;;;11.10;99.90;11.00;100134.00;;;;4895124;28;88123;-64
2022/11/09 02:36:45;;;;;;;3.63;3.10;;;11.00;99.90;11.00;100127.00;;;;4897367;28;87802;-64
2022/11/09 02:39:14;;;;;;;3.00;2.40;;;11.00;99.90;10.90;100136.00;;;;4894809;28;88051;-63
2022/11/09 02:41:47;;;;;;;3.70;3.40;;;11.00;99.90;10.90;100136.00;;;;4892382;28;108399;-63
2022/11/09 02:44:15;;;;;;;4.93;2.80;;;11.00;99.90;10.90;100139.00;;;;4898598;28;89557;-64
2022/11/09 02:46:41;;;;;;;3.03;2.80;;;10.90;99.90;10.80;100141.00;;;;4895798;28;109593;-64
2022/11/09 02:49:07;;;;;;;6.73;3.50;;;10.90;99.90;10.80;100133.00;;;;4897049;28;87113;-64
2022/11/09 02:51:32;;;;;;;5.47;2.90;;;10.90;99.90;10.70;100132.00;;;;4896693;28;117492;-64
2022/11/09 02:53:58;;;;;;;3.83;2.87;;;10.80;99.90;10.70;100136.00;;;;4895279;28;110022;-65
2022/11/09 02:56:24;;;;;;;3.03;2.70;;;10.70;99.90;10.60;100130.00;;;;4895800;28;109616;-64
2022/11/09 02:58:50;;;;;;;2.80;2.53;;;10.70;99.90;10.60;100127.00;;;;4895928;28;88338;-65
2022/11/09 03:01:16;;;;;;;6.83;3.17;;;10.70;99.90;10.50;100124.00;;;;4892945;28;116053;-64
2022/11/09 03:03:42;;;;;;;11.37;3.60;;;10.60;99.90;10.50;100128.00;;;;4901194;28;109649;-64
2022/11/09 03:06:07;;;;;;;4.03;2.83;;;10.60;99.90;10.50;100122.00;;;;4898299;28;108060;-63
2022/11/09 03:08:33;;;;;;;4.83;3.30;;;10.50;99.90;10.40;100132.00;;;;4899897;28;118885;-64
2022/11/09 03:10:59;;;;;;;4.93;2.97;;;10.50;99.90;10.40;100130.00;;;;4898024;28;87999;-65
2022/11/09 03:13:25;;;;;;;6.90;2.80;;;10.50;99.90;10.40;100129.00;;;;4903910;28;109953;-64
2022/11/09 03:15:51;;;;;;;5.17;3.40;;;10.50;99.90;10.40;100122.00;;;;4900331;28;108155;-64
2022/11/09 03:18:16;;;;;;;6.93;3.60;;;10.40;99.90;10.40;100122.00;;;;4897204;28;116575;-65
2022/11/09 03:20:42;;;;;;;4.20;2.93;;;10.40;99.90;10.30;100140.00;;;;4898459;28;116863;-63
2022/11/09 03:23:09;;;;;;;3.90;2.80;;;10.40;99.90;10.30;100135.00;;;;4899735;28;109996;-63
2022/11/09 03:25:35;;;;;;;8.00;4.10;;;10.40;99.90;10.30;100128.00;;;;4900732;28;87847;-64
2022/11/09 03:28:05;;;;;;;4.03;3.47;;;10.40;99.90;10.30;100131.00;;;;4897959;28;116857;-63
2022/11/09 03:30:32;;;;;;;5.73;4.07;;;10.40;99.90;10.30;100128.00;;;;4902129;28;110390;-64
2022/11/09 03:33:04;;;;;;;3.83;3.17;;;10.40;99.90;10.30;100127.00;;;;4902497;28;87884;-64
2022/11/09 03:35:30;;;;;;;3.47;2.67;;;10.40;99.90;10.40;100131.00;;;;4898068;28;87943;-64
2022/11/09 03:37:56;;;;;;;4.97;3.90;;;10.40;99.90;10.40;100126.00;;;;4897015;28;100906;-63
2022/11/09 03:40:21;;;;;;;7.10;3.53;;;10.40;99.90;10.40;100117.00;;;;4919365;28;115804;-63
2022/11/09 03:42:48;;;;;;;7.17;4.00;;;10.40;99.90;10.40;100131.00;;;;4902881;28;94534;-63
2022/11/09 03:45:16;;;;;;;4.63;3.27;;;10.40;99.90;10.40;100133.00;;;;4898407;28;88924;-64
2022/11/09 03:47:46;;;;;;;7.33;3.70;;;10.40;99.90;10.40;100127.00;;;;4896580;28;116871;-64
2022/11/09 03:50:14;;;;;;;4.47;3.83;;;10.50;99.90;10.40;100121.00;;;;4898783;28;88038;-64
2022/11/09 03:52:43;;;;;;;4.00;3.00;;;10.50;99.90;10.40;100136.00;;;;4898939;28;87950;-63
2022/11/09 03:55:09;;;;;;;6.10;3.20;;;10.50;99.90;10.40;100141.00;;;;4899646;28;87941;-64
2022/11/09 03:57:35;;;;;;;7.50;4.30;;;10.30;99.90;10.40;100131.00;;;;4897496;28;117840;-63
2022/11/09 04:00:00;;;;;;;4.97;3.90;;;10.40;99.90;10.40;100126.00;;;;4893588;28;115360;-62
2022/11/09 04:02:26;;;;;;;5.67;3.40;;;10.40;99.90;10.30;100130.00;;;;4896655;28;109956;-63
2022/11/09 04:04:51;;;;;;;5.20;3.30;;;10.40;99.90;10.30;100124.00;;;;4898154;28;108575;-64
2022/11/09 04:07:17;;;;;;;4.30;3.07;;;10.40;99.90;10.30;100124.00;;;;4898868;28;117147;-63
2022/11/09 04:09:43;;;;;;;5.97;3.70;;;10.40;99.90;10.30;100120.00;;;;4894361;28;117786;-63
2022/11/09 04:12:08;;;;;;;3.73;3.20;;;10.40;99.90;10.30;100130.00;;;;4898962;28;109421;-64
2022/11/09 04:14:34;;;;;;;6.37;4.13;;;10.30;99.90;10.20;100127.00;;;;4899873;28;108148;-64
2022/11/09 04:17:00;;;;;;;5.33;3.90;;;10.30;99.90;10.20;100126.00;;;;4901891;28;116794;-65
2022/11/09 04:19:25;;;;;;;9.47;3.37;;;10.30;99.90;10.20;100139.00;;;;4896662;28;116860;-64
2022/11/09 04:21:51;;;;;;;6.40;4.70;;;10.30;99.90;10.20;100135.00;;;;4897549;28;111310;-64
2022/11/09 04:24:17;;;;;;;4.03;3.53;;;10.30;99.90;10.20;100134.00;;;;4900590;28;108040;-64
2022/11/09 04:26:42;;;;;;;4.97;3.83;;;10.30;99.90;10.20;100146.00;;;;4901833;28;116086;-64
2022/11/09 04:29:09;;;;;;;5.50;4.00;;;10.30;99.90;10.20;100131.00;;;;4899680;28;114964;-64
2022/11/09 04:31:35;;;;;;;5.33;4.50;;;10.30;99.90;10.20;100131.00;;;;4896398;28;100064;-63
2022/11/09 04:34:00;;;;;;;9.00;4.77;;;10.30;99.90;10.30;100124.00;;;;4901318;28;108428;-63
2022/11/09 04:36:26;;;;;;;7.33;4.57;;;10.30;99.90;10.30;100120.00;;;;4909925;28;116099;-63
2022/11/09 04:38:52;;;;;;;5.97;3.43;;;10.30;99.90;10.30;100130.00;;;;4897093;28;113980;-65
2022/11/09 04:41:17;;;;;;;6.73;4.27;;;10.30;99.90;10.30;100132.00;;;;4898093;28;109691;-63
2022/11/09 04:43:43;;;;;;;5.47;4.17;;;10.40;99.90;10.30;100126.00;;;;4898811;28;108705;-63
2022/11/09 04:46:09;;;;;;;5.90;2.83;;;10.40;99.90;10.30;100128.00;;;;4901359;28;118141;-64
2022/11/09 04:48:34;;;;;;;6.20;4.57;;;10.30;99.90;10.30;100137.00;;;;4900020;28;92153;-65
2022/11/09 04:51:09;;;;;;;5.83;4.10;;;10.30;99.90;10.30;100138.00;;;;4893187;28;88960;-64
2022/11/09 04:53:36;;;;;;;7.13;4.13;;;10.30;99.90;10.20;100135.00;;;;4899774;28;87811;-64
2022/11/09 04:56:03;;;;;;;12.63;4.53;;;10.30;99.90;10.20;100138.00;;;;4899668;28;96345;-63
2022/11/09 04:58:28;;;;;;;4.67;3.90;;;10.30;99.90;10.20;100134.00;;;;4896279;28;88948;-63
2022/11/09 05:00:54;;;;;;;5.93;4.27;;;10.30;99.90;10.20;100141.00;;;;4896488;28;109837;-64
2022/11/09 05:03:20;;;;;;;5.07;4.47;;;10.30;99.90;10.30;100137.00;;;;4896938;28;109899;-63
2022/11/09 05:05:46;;;;;;;4.87;3.97;;;10.30;99.90;10.30;100135.00;;;;4896364;28;118107;-64
2022/11/09 05:08:12;;;;;;;8.33;4.17;;;10.30;99.90;10.30;100143.00;;;;4896518;28;117306;-62
2022/11/09 05:10:37;;;;;;;6.70;3.83;;;10.30;99.90;10.30;100140.00;;;;4894622;28;110137;-64
2022/11/09 05:13:10;;;;;;;6.03;4.03;;;10.40;99.90;10.30;100142.00;;;;4898782;28;108467;-64
2022/11/09 05:15:36;;;;;;;4.93;4.37;;;10.40;99.90;10.30;100140.00;;;;4897873;28;88290;-64
2022/11/09 05:18:03;;;;;;;8.50;4.00;;;10.40;99.90;10.30;100144.00;;;;4895096;28;118005;-63
2022/11/09 05:20:29;;;;;;;6.87;3.60;;;10.40;99.90;10.40;100150.00;;;;4894602;28;106863;-63
2022/11/09 05:25:45;;;;;;;9.80;4.93;;;10.40;99.90;10.40;100149.00;;;;4893887;28;87748;-63
2022/11/09 05:28:11;;;;;;;6.90;4.27;;;10.50;99.90;10.40;100155.00;;;;4896755;28;87915;-63
2022/11/09 05:30:37;;;;;;;6.67;5.33;;;10.50;99.90;10.50;100144.00;;;;4894872;28;109091;-64
2022/11/09 05:33:03;;;;;;;12.67;5.77;;;10.50;99.90;10.50;100155.00;;;;4894919;28;101336;-63
2022/11/09 05:35:29;;;;;;;6.03;4.90;;;10.50;99.90;10.50;100147.00;;;;4894639;28;118240;-63
2022/11/09 05:37:54;;;;;;;8.53;4.87;;;10.60;99.90;10.60;100154.00;;;;4897078;28;117311;-64
2022/11/09 05:40:20;;;;;;;7.30;5.23;;;10.60;99.90;10.60;100152.00;;;;4896973;28;110769;-63
2022/11/09 05:42:46;;;;;;;6.83;5.13;;;10.60;99.90;10.60;100153.00;;;;4893302;28;108877;-63
2022/11/09 05:45:15;;;;;;;6.87;4.90;;;10.60;99.90;10.70;100151.00;;;;4893025;28;114172;-64
2022/11/09 05:47:43;;;;;;;5.90;3.70;;;10.60;99.90;10.70;100150.00;;;;4895447;28;92201;-63
2022/11/09 05:50:13;;;;;;;9.30;5.63;;;10.70;99.90;10.70;100153.00;;;;4894442;28;105910;-63
2022/11/09 05:52:39;;;;;;;6.83;5.47;;;10.70;99.90;10.70;100145.00;;;;4891718;28;87891;-64
2022/11/09 05:55:06;;;;;;;10.93;5.23;;;11.10;99.90;10.70;100155.00;;;;4894416;28;89080;-66
2022/11/09 05:57:32;;;;;;;9.53;4.73;;;10.80;99.90;10.80;100156.00;;;;4893314;28;111318;-63
2022/11/09 05:59:58;;;;;;;7.20;5.27;;;10.70;99.90;10.80;100161.00;;;;4900726;28;99256;-63
2022/11/09 06:02:23;;;;;;;6.63;4.17;;;10.80;99.90;10.80;100160.00;;;;4894396;28;108462;-64
2022/11/09 06:04:49;;;;;;;5.70;4.07;;;10.80;99.90;10.80;100160.00;;;;4891220;28;115328;-64
2022/11/09 06:07:15;;;;;;;7.27;4.33;;;10.80;99.90;10.80;100163.00;;;;4889500;28;116191;-63
2022/11/09 06:09:40;;;;;;;7.43;5.13;;;10.80;99.90;10.80;100174.00;;;;4886584;28;89233;-63
2022/11/09 06:12:06;;;;;;;9.20;4.90;;;10.80;99.90;10.80;100183.00;;;;4889705;28;108117;-64
2022/11/09 06:14:32;;;;;;;8.53;5.13;;;10.80;99.90;10.70;100173.00;;;;4891908;28;103600;-65
2022/11/09 06:16:58;;;;;;;8.20;4.83;;;10.80;99.90;10.70;100180.00;;;;4901602;28;117392;-64
2022/11/09 06:19:24;;;;;;;6.33;4.57;;;10.70;99.90;10.70;100181.00;;;;4901673;28;87913;-64
2022/11/09 06:21:50;;;;;;;3.60;3.30;;;10.80;99.90;10.70;100180.00;;;;4898279;28;108895;-64
2022/11/09 06:24:15;;;;;;;7.90;4.27;;;10.80;99.90;10.70;100176.00;;;;4895331;28;117122;-64
2022/11/09 06:26:41;;;;;;;10.60;5.63;;;10.70;99.90;10.70;100170.00;;;;4899377;28;116651;-64
2022/11/09 06:29:07;;;;;;;8.07;5.30;;;10.50;99.90;10.70;100163.00;;;;4898226;28;111208;-64
2022/11/09 06:31:33;;;;;;;7.97;4.67;;;10.70;99.90;10.70;100168.00;;;;4896243;28;87940;-64
2022/11/09 06:33:58;;;;;;;7.10;4.47;;;10.70;99.90;10.70;100162.00;;;;4893836;28;118968;-64
2022/11/09 06:36:24;;;;;;;7.97;4.73;;;10.70;99.90;10.70;100170.00;;;;4898240;28;117287;-64
2022/11/09 06:38:51;;;;;;;6.27;4.17;;;10.70;99.90;10.70;100169.00;;;;4898879;28;96177;-64
2022/11/09 06:41:16;;;;;;;5.17;4.27;;;10.70;99.90;10.70;100175.00;;;;4902259;28;87762;-64
2022/11/09 06:43:42;;;;;;;9.17;6.40;;;10.70;99.90;10.70;100172.00;;;;4898905;28;110456;-64
2022/11/09 06:46:12;;;;;;;7.70;5.10;;;10.70;99.90;10.70;100174.00;;;;4899740;28;88046;-65
2022/11/09 06:48:40;;;;;;;8.97;4.80;;;10.70;99.90;10.70;100176.00;;;;4898337;28;87779;-64
2022/11/09 06:51:06;;;;;;;5.80;4.57;;;10.70;99.90;10.80;100178.00;;;;4896148;28;108394;-65
2022/11/09 06:53:36;;;;;;;5.00;4.27;;;10.80;99.90;10.80;100184.00;;;;4900108;28;99956;-65
2022/11/09 06:56:04;;;;;;;9.00;4.30;;;10.80;99.90;10.80;100185.00;;;;4894863;28;87798;-64
2022/11/09 06:58:30;;;;;;;6.43;3.97;;;10.80;99.90;10.90;100180.00;;;;4898101;28;93924;-63
2022/11/09 07:00:56;;;;;;;6.63;4.57;;;10.90;99.90;10.90;100190.00;;;;4900472;28;108706;-64
2022/11/09 07:03:23;;;;;;;5.43;3.50;;;10.90;99.90;11.00;100198.00;;;;4901594;28;88931;-64
2022/11/09 07:05:51;;;;;;;12.13;5.07;;;11.00;99.90;11.00;100182.00;;;;4899732;28;112346;-64
2022/11/09 07:08:17;;;;;;;7.07;4.73;;;11.00;99.90;11.10;100194.00;;;;4899269;28;88117;-65
2022/11/09 07:10:44;;;;;;;6.37;4.00;;;11.10;99.90;11.10;100205.00;;;;4904754;28;87736;-64
2022/11/09 07:13:10;;;;;;;6.27;4.70;;;11.10;99.90;11.20;100202.00;;;;4902584;28;88871;-64
2022/11/09 07:15:37;;;;;;;7.17;4.53;;;11.20;99.90;11.20;100196.00;;;;4900389;28;112266;-64
2022/11/09 07:18:06;;;;;;;8.30;4.63;;;11.20;99.90;11.20;100202.00;;;;4901600;28;87133;-64
2022/11/09 07:20:32;;;;;;;6.70;3.87;;;11.20;99.90;11.30;100208.00;;;;4900693;28;88093;-64
2022/11/09 07:22:58;;;;;;;6.50;4.73;;;11.30;99.90;11.30;100207.00;;;;4903926;28;88358;-64
2022/11/09 07:25:26;;;;;;;5.63;3.80;;;11.30;99.90;11.30;100205.00;;;;4895598;28;116254;-64
2022/11/09 07:27:52;;;;;;;9.70;4.70;;;11.30;99.90;11.30;100210.00;;;;4900123;28;88097;-64
2022/11/09 07:30:18;;;;;;;5.73;3.87;;;11.30;99.90;11.40;100201.00;;;;4901684;28;87760;-64
2022/11/09 07:32:43;;;;;;;7.27;4.30;;;11.40;99.90;11.40;100204.00;;;;4904954;28;88793;-64
2022/11/09 07:35:09;;;;;;;8.63;4.83;;;11.40;99.90;11.40;100210.00;;;;4898775;28;117972;-64
2022/11/09 07:37:36;;;;;;;8.40;3.43;;;11.40;99.90;11.50;100219.00;;;;4898088;28;88058;-64
2022/11/09 07:40:03;;;;;;;5.50;3.50;;;11.50;99.90;11.50;100216.00;;;;4909543;28;87888;-64
2022/11/09 07:42:29;;;;;;;7.50;4.23;;;11.50;99.90;11.60;100208.00;;;;4899942;28;106379;-63
2022/11/09 07:44:54;;;;;;;6.93;4.57;;;11.50;99.90;11.60;100213.00;;;;4900985;28;117952;-64
2022/11/09 07:47:20;;;;;;;6.50;4.57;;;11.60;99.90;11.60;100220.00;;;;4896160;28;87561;-65
2022/11/09 07:49:46;;;;;;;7.07;4.40;;;11.60;99.90;11.70;100208.00;;;;4905150;28;108240;-64
2022/11/09 07:52:12;;;;;;;4.43;3.10;;;11.60;99.90;11.70;100211.00;;;;4905429;28;88019;-64
2022/11/09 07:54:38;;;;;;;4.97;3.70;;;11.70;99.90;11.70;100200.00;;;;4900180;28;111252;-65
2022/11/09 07:57:05;;;;;;;10.80;4.73;;;11.70;99.90;11.80;100208.00;;;;4896060;28;88043;-64
2022/11/09 07:59:30;;;;;;;5.83;4.23;;;11.70;99.90;11.80;100211.00;;;;4902507;28;87936;-64
2022/11/09 08:01:57;;;;;;;6.13;4.47;;;11.80;99.90;11.90;100222.00;;;;4902158;28;88889;-64
2022/11/09 08:04:23;;;;;;;8.10;5.03;;;11.80;99.90;12.00;100211.00;;;;4902038;28;88028;-63
2022/11/09 08:06:52;;;;;;;6.93;4.70;;;11.90;99.90;12.00;100223.00;;;;4901630;28;103900;-63
2022/11/09 08:09:18;;;;;;;8.37;4.23;;;12.00;99.90;12.10;100234.00;;;;4901301;28;107073;-66
2022/11/09 08:11:44;;;;;;;6.37;4.20;;;12.00;99.90;12.10;100228.00;;;;4897720;28;87830;-63
2022/11/09 08:14:09;;;;;;;8.10;4.90;;;12.10;99.90;12.20;100209.00;;;;4898345;28;117624;-64
2022/11/09 08:16:35;;;;;;;7.67;4.00;;;12.10;99.90;12.20;100224.00;;;;4898287;28;109713;-63
2022/11/09 08:19:01;;;;;;;5.13;3.73;;;12.20;99.90;12.20;100224.00;;;;4903727;28;108139;-63
2022/11/09 08:21:26;;;;;;;9.73;5.77;;;12.20;99.90;12.30;100234.00;;;;4898056;28;105880;-65
2022/11/09 08:23:52;;;;;;;8.00;4.70;;;12.20;99.90;12.30;100242.00;;;;4898228;28;116454;-64
2022/11/09 08:26:18;;;;;;;5.60;3.93;;;12.30;99.90;12.40;100234.00;;;;4899470;28;87832;-64
2022/11/09 08:28:43;;;;;;;7.33;5.10;;;12.30;99.90;12.40;100234.00;;;;4895933;28;109127;-64
2022/11/09 08:31:09;;;;;;;4.17;3.77;;;12.30;99.90;12.40;100227.00;;;;4896617;28;117841;-63
2022/11/09 08:33:38;;;;;;;5.17;3.87;;;12.30;99.90;12.40;100230.00;;;;4902024;28;92983;-63
2022/11/09 08:36:16;;;;;;;4.77;3.17;;;12.30;99.90;12.30;100244.00;;;;4901460;28;87765;-63
2022/11/09 08:38:43;;;;;;;7.63;4.83;;;12.30;99.90;12.30;100239.00;;;;4898595;28;88845;-64
2022/11/09 08:41:11;;;;;;;8.17;4.43;;;12.30;99.90;12.30;100253.00;;;;4897431;28;89009;-63
2022/11/09 08:43:36;;;;;;;4.03;3.60;;;12.30;99.90;12.20;100246.00;;;;4898507;28;88166;-64
2022/11/09 08:46:03;;;;;;;7.00;4.80;;;12.20;99.90;12.20;100251.00;;;;4903110;28;111007;-63
2022/11/09 08:48:29;;;;;;;7.43;3.43;;;12.20;99.90;12.10;100257.00;;;;4900190;28;88014;-63
2022/11/09 08:50:58;;;;;;;7.63;4.23;;;12.20;99.90;12.10;100251.00;;;;4899695;28;88439;-64
2022/11/09 08:53:26;;;;;;;6.60;5.03;;;12.10;99.90;12.00;100263.00;;;;4899711;28;110111;-64
2022/11/09 08:55:52;;;;;;;10.33;4.70;;;12.10;99.90;12.00;100257.00;;;;4901304;28;87030;-64
2022/11/09 08:58:19;;;;;;;8.40;4.50;;;12.00;99.90;11.90;100260.00;;;;4898662;28;90122;-64
2022/11/09 09:00:45;;;;;;;7.37;4.50;;;11.90;99.90;11.90;100258.00;;;;4895933;28;88664;-63
2022/11/09 09:03:11;;;;;;;4.17;3.77;;;11.90;99.90;11.80;100260.00;;;;4898930;28;89273;-63
2022/11/09 09:05:36;;;;;;;8.87;4.00;;;11.90;99.90;11.80;100262.00;;;;4898854;28;108621;-64
2022/11/09 09:08:04;;;;;;;8.37;4.50;;;11.80;99.90;11.80;100272.00;;;;4900055;28;95240;-64
2022/11/09 09:10:31;;;;;;;5.73;4.07;;;11.80;99.90;11.70;100270.00;;;;4897161;28;88634;-64
2022/11/09 09:12:57;;;;;;;10.80;5.13;;;11.80;99.90;11.70;100267.00;;;;4897948;28;88863;-65
2022/11/09 09:15:23;;;;;;;9.23;4.00;;;11.70;99.90;11.70;100265.00;;;;4900730;28;109685;-65
2022/11/09 09:17:49;;;;;;;7.63;4.10;;;11.70;99.90;11.60;100272.00;;;;4899882;28;107394;-64
2022/11/09 09:20:16;;;;;;;11.77;5.67;;;11.60;99.90;11.50;100277.00;;;;4899242;28;87450;-64
2022/11/09 09:22:42;;;;;;;9.40;4.73;;;11.60;99.90;11.50;100259.00;;;;4900016;28;87911;-65
2022/11/09 09:25:08;;;;;;;5.33;4.10;;;11.50;99.90;11.40;100278.00;;;;4901998;28;99643;-66
2022/11/09 09:27:34;;;;;;;7.77;4.70;;;11.40;99.90;11.30;100278.00;;;;4897853;28;88599;-64
2022/11/09 09:30:00;;;;;;;8.40;5.33;;;11.30;99.90;11.20;100279.00;;;;4899478;28;96279;-66
2022/11/09 09:32:26;;;;;;;7.77;4.80;;;11.20;99.90;11.10;100283.00;;;;4895250;28;117565;-64
2022/11/09 09:34:52;;;;;;;7.13;5.40;;;11.10;99.90;11.00;100282.00;;;;4897184;28;87900;-64
2022/11/09 09:37:17;;;;;;;7.10;5.60;;;11.10;99.90;10.90;100273.00;;;;4895314;28;96711;-64
2022/11/09 09:39:43;;;;;;;10.50;6.30;;;11.00;99.90;10.90;100284.00;;;;4897173;28;111653;-64
2022/11/09 09:42:28;;;;;;;7.40;5.37;;;10.90;99.90;10.80;100274.00;;;;4899140;28;117055;-64
2022/11/09 09:45:09;;;;;;;6.93;4.43;;;10.90;99.90;10.70;100282.00;;;;4899599;28;102237;-63
2022/11/09 09:47:58;;;;;;;6.07;4.67;;;10.80;99.90;10.60;100277.00;;;;4895707;28;97760;-65
2022/11/09 09:50:31;;;;;;;7.07;4.37;;;10.70;99.90;10.60;100277.00;;;;4898904;28;90223;-64
2022/11/09 09:53:34;;;;;;;5.87;4.00;;;10.70;99.90;10.40;100275.00;;;;4896095;28;88829;-64
2022/11/09 09:56:10;;;;;;;6.20;4.00;;;10.60;99.90;10.30;100276.00;;;;4892179;28;104006;-65
2022/11/09 09:58:44;;;;;;;5.30;3.80;;;10.50;99.90;10.30;100265.00;;;;4893671;28;87890;-66
2022/11/09 10:01:19;;;;;;;4.50;3.60;;;10.40;99.90;10.20;100271.00;;;;4914618;28;89094;-66
2022/11/09 10:03:48;;;;;;;5.73;3.93;;;10.30;99.90;10.20;100273.00;;;;4892309;28;89468;-65
2022/11/09 10:06:42;;;;;;;10.53;5.30;;;10.30;99.90;10.20;100262.00;;;;4893872;28;111026;-65
2022/11/09 10:09:26;;;;;;;13.63;3.93;;;10.30;99.90;10.20;100265.00;;;;4893482;28;87941;-67
2022/11/09 10:12:15;;;;;;;9.10;4.30;;;10.30;99.90;10.20;100272.00;;;;4896190;28;109970;-65
2022/11/09 10:15:19;;;;;;;6.47;5.23;;;10.30;99.90;10.20;100277.00;;;;4896663;28;89030;-65
2022/11/09 10:18:15;;;;;;;8.63;3.87;;;10.30;99.90;10.20;100274.00;;;;4898304;28;87778;-66
2022/11/09 10:21:01;;;;;;;4.20;2.97;;;10.30;99.90;10.30;100264.00;;;;4897752;28;89327;-66
2022/11/09 10:23:47;;;;;;;9.17;6.77;;;10.40;99.90;10.40;100261.00;;;;4897768;28;102697;-66
2022/11/09 10:26:42;;;;;;;9.07;6.43;;;10.40;99.90;10.50;100264.00;;;;4899577;28;87882;-66
2022/11/09 10:29:45;;;;;;;6.60;4.47;;;10.50;99.90;10.60;100262.00;;;;4901621;28;88067;-66
2022/11/09 10:32:18;;;;;;;7.77;5.93;;;10.60;99.90;10.70;100259.00;;;;4885956;28;101165;-66
2022/11/09 10:34:59;;;;;;;7.50;5.50;;;10.70;99.90;10.80;100265.00;;;;4898245;28;88487;-66
2022/11/09 10:37:41;;;;;;;9.37;4.77;;;10.80;99.90;10.80;100261.00;;;;4900489;28;109838;-65
2022/11/09 10:40:07;;;;;;;7.20;5.20;;;10.80;99.90;10.80;100258.00;;;;4894393;28;87202;-65
2022/11/09 10:42:34;;;;;;;7.63;5.33;;;11.20;99.90;10.80;100254.00;;;;4900822;28;87628;-65
2022/11/09 10:45:11;;;;;;;6.60;4.63;;;10.90;99.90;10.90;100246.00;;;;4898178;28;96236;-65
2022/11/09 10:48:05;;;;;;;5.27;4.10;;;10.90;99.90;10.90;100249.00;;;;4901875;28;97549;-66
2022/11/09 10:50:38;;;;;;;12.83;5.90;;;10.90;99.90;11.00;100252.00;;;;4895781;28;103287;-66